createdAt,value
2018-08-19T00:02:21.666Z,3.93
2018-08-19T00:05:05.782Z,4.60
2018-08-19T00:07:35.329Z,5.63
2018-08-19T00:10:05.267Z,5.43
2018-08-19T00:12:40.857Z,8.30
2018-08-19T00:15:10.217Z,4.73
2018-08-19T00:17:39.966Z,4.03
2018-08-19T00:20:12.183Z,6.60
2018-08-19T00:22:42.099Z,3.47
2018-08-19T00:25:16.177Z,7.97
2018-08-19T00:27:45.662Z,5.90
2018-08-19T00:30:15.001Z,3.60
2018-08-19T00:32:44.688Z,4.00
2018-08-19T00:35:13.986Z,3.90
2018-08-19T00:37:43.479Z,4.60
2018-08-19T00:40:12.885Z,3.93
2018-08-19T00:42:43.867Z,3.80
2018-08-19T00:45:13.665Z,4.17
2018-08-19T00:47:42.995Z,9.53
2018-08-19T00:50:12.297Z,3.73
2018-08-19T00:52:41.719Z,6.10
2018-08-19T00:55:11.200Z,3.00
2018-08-19T00:57:43.160Z,8.40
2018-08-19T01:00:12.394Z,5.30
2018-08-19T01:02:41.676Z,5.17
2018-08-19T01:05:11.083Z,2.97
2018-08-19T01:07:40.460Z,5.10
2018-08-19T01:10:09.936Z,5.10
2018-08-19T01:12:39.278Z,6.80
2018-08-19T01:15:12.187Z,4.90
2018-08-19T01:17:41.977Z,8.73
2018-08-19T01:20:12.792Z,5.37
2018-08-19T01:22:43.344Z,4.17
2018-08-19T01:25:14.302Z,5.50
2018-08-19T01:27:43.633Z,6.10
2018-08-19T01:30:16.112Z,3.83
2018-08-19T01:32:45.498Z,4.57
2018-08-19T01:35:15.112Z,4.30
2018-08-19T01:37:44.469Z,6.77
2018-08-19T01:40:17.531Z,20.73
2018-08-19T01:42:47.594Z,6.13
2018-08-19T01:45:16.886Z,9.93
2018-08-19T01:47:46.238Z,6.80
2018-08-19T01:50:16.815Z,5.17
2018-08-19T01:52:48.676Z,6.40
2018-08-19T01:55:18.228Z,5.10
2018-08-19T01:57:48.601Z,11.27
2018-08-19T02:00:18.638Z,6.80
2018-08-19T02:03:01.529Z,6.50
2018-08-19T02:05:30.801Z,3.30
2018-08-19T02:08:02.410Z,3.63
2018-08-19T02:10:32.896Z,3.60
2018-08-19T02:13:02.566Z,5.00
2018-08-19T02:15:32.739Z,5.30
2018-08-19T02:18:03.345Z,7.33
2018-08-19T02:20:34.768Z,3.47
2018-08-19T02:23:06.307Z,7.50
2018-08-19T02:25:40.482Z,6.03
2018-08-19T02:28:10.651Z,4.20
2018-08-19T02:31:03.374Z,6.57
2018-08-19T02:33:34.803Z,10.23
2018-08-19T02:36:06.697Z,8.43
2018-08-19T02:38:37.121Z,5.63
2018-08-19T02:41:06.930Z,7.33
2018-08-19T02:43:46.432Z,3.90
2018-08-19T02:46:15.855Z,3.93
2018-08-19T02:48:48.062Z,3.20
2018-08-19T02:51:20.583Z,8.23
2018-08-19T02:53:51.023Z,3.07
2018-08-19T02:56:20.948Z,8.40
2018-08-19T02:58:50.208Z,3.40
2018-08-19T03:01:19.697Z,5.27
2018-08-19T03:03:49.056Z,6.93
2018-08-19T03:06:18.502Z,3.43
2018-08-19T03:08:52.951Z,5.20
2018-08-19T03:11:22.639Z,2.70
2018-08-19T03:13:51.887Z,8.07
2018-08-19T03:16:21.234Z,3.63
2018-08-19T03:18:52.831Z,3.30
2018-08-19T03:21:23.119Z,3.63
2018-08-19T03:23:53.779Z,4.43
2018-08-19T03:26:23.096Z,3.33
2018-08-19T03:28:52.383Z,4.33
2018-08-19T03:31:24.759Z,3.83
2018-08-19T03:33:54.104Z,7.30
2018-08-19T03:36:23.428Z,4.57
2018-08-19T03:38:53.922Z,3.90
2018-08-19T03:41:23.227Z,7.43
2018-08-19T03:43:58.383Z,9.17
2018-08-19T03:46:29.172Z,5.03
2018-08-19T03:48:58.476Z,7.23
2018-08-19T03:51:27.758Z,9.37
2018-08-19T03:53:57.093Z,11.60
2018-08-19T03:56:26.344Z,2.50
2018-08-19T03:58:59.835Z,13.93
2018-08-19T04:01:41.918Z,7.83
2018-08-19T04:04:12.716Z,8.13
2018-08-19T04:06:42.111Z,8.93
2018-08-19T04:09:11.346Z,15.10
2018-08-19T04:11:40.868Z,14.07
2018-08-19T04:14:26.604Z,6.13
2018-08-19T04:16:58.297Z,8.90
2018-08-19T04:19:28.186Z,14.80
2018-08-19T04:22:00.977Z,4.00
2018-08-19T04:24:30.992Z,21.00
2018-08-19T04:27:04.116Z,14.03
2018-08-19T04:29:34.423Z,9.50
2018-08-19T04:32:04.808Z,12.30
2018-08-19T04:34:34.144Z,7.17
2018-08-19T04:37:03.425Z,6.87
2018-08-19T04:39:32.703Z,8.17
2018-08-19T04:42:02.044Z,6.13
2018-08-19T04:44:31.346Z,4.10
2018-08-19T04:47:01.251Z,5.33
2018-08-19T04:49:30.515Z,3.47
2018-08-19T04:52:00.917Z,3.80
2018-08-19T04:54:30.356Z,3.73
2018-08-19T04:56:59.642Z,3.47
2018-08-19T04:59:28.947Z,4.27
2018-08-19T05:01:58.228Z,3.90
2018-08-19T05:04:27.532Z,4.03
2018-08-19T05:06:56.852Z,3.47
2018-08-19T05:09:26.171Z,5.13
2018-08-19T05:11:55.579Z,6.13
2018-08-19T05:14:24.822Z,4.97
2018-08-19T05:16:54.057Z,3.63
2018-08-19T05:19:23.370Z,7.97
2018-08-19T05:21:54.554Z,4.03
2018-08-19T05:24:23.874Z,5.90
2018-08-19T05:26:57.541Z,3.40
2018-08-19T05:29:26.856Z,5.70
2018-08-19T05:31:58.746Z,4.50
2018-08-19T05:34:37.602Z,8.23
2018-08-19T05:37:06.927Z,6.83
2018-08-19T05:39:36.488Z,7.70
2018-08-19T05:42:11.339Z,5.83
2018-08-19T05:44:41.387Z,5.77
2018-08-19T05:47:13.681Z,7.70
2018-08-19T05:49:44.122Z,5.90
2018-08-19T05:52:20.505Z,4.60
2018-08-19T05:54:53.855Z,5.47
2018-08-19T05:57:23.253Z,7.43
2018-08-19T05:59:53.742Z,4.23
2018-08-19T06:02:30.954Z,8.37
2018-08-19T06:05:00.924Z,4.10
2018-08-19T06:07:30.451Z,5.53
2018-08-19T06:09:59.874Z,4.93
2018-08-19T06:12:29.165Z,6.93
2018-08-19T06:15:00.601Z,9.50
2018-08-19T06:17:29.904Z,3.80
2018-08-19T06:19:59.267Z,6.53
2018-08-19T06:22:42.922Z,6.73
2018-08-19T06:25:15.720Z,12.93
2018-08-19T06:27:47.621Z,6.93
2018-08-19T06:30:17.915Z,5.80
2018-08-19T06:32:48.328Z,7.93
2018-08-19T06:35:18.180Z,4.77
2018-08-19T06:37:48.617Z,5.40
2018-08-19T06:40:22.059Z,5.07
2018-08-19T06:42:51.545Z,6.60
2018-08-19T06:45:21.090Z,12.40
2018-08-19T06:47:51.459Z,5.83
2018-08-19T06:50:29.811Z,9.40
2018-08-19T06:52:59.958Z,7.93
2018-08-19T06:55:29.659Z,8.10
2018-08-19T06:58:00.146Z,5.93
2018-08-19T07:00:31.574Z,4.20
2018-08-19T07:03:04.411Z,4.70
2018-08-19T07:05:34.431Z,6.27
2018-08-19T07:08:03.831Z,5.03
2018-08-19T07:10:38.560Z,6.37
2018-08-19T07:13:16.376Z,5.43
2018-08-19T07:15:45.737Z,7.83
2018-08-19T07:18:16.259Z,6.60
2018-08-19T07:20:45.968Z,5.90
2018-08-19T07:23:15.291Z,8.63
2018-08-19T07:25:45.517Z,7.57
2018-08-19T07:28:16.644Z,6.37
2018-08-19T07:30:46.004Z,5.27
2018-08-19T07:33:15.618Z,6.07
2018-08-19T07:35:44.907Z,4.97
2018-08-19T07:38:14.303Z,5.90
2018-08-19T07:40:43.599Z,5.10
2018-08-19T07:43:12.903Z,62.17
2018-08-19T07:45:42.226Z,20.80
2018-08-19T07:48:11.572Z,24.30
2018-08-19T07:50:41.167Z,10.70
2018-08-19T07:53:10.461Z,12.03
2018-08-19T07:55:39.805Z,10.07
2018-08-19T07:58:09.344Z,3.30
2018-08-19T08:00:40.179Z,5.93
2018-08-19T08:03:09.887Z,5.17
2018-08-19T08:05:44.323Z,4.57
2018-08-19T08:08:13.604Z,4.10
2018-08-19T08:10:43.028Z,5.23
2018-08-19T08:13:13.453Z,4.03
2018-08-19T08:16:00.374Z,12.80
2018-08-19T08:18:29.835Z,9.05
2018-08-19T08:21:04.238Z,9.23
2018-08-19T08:23:33.588Z,9.93
2018-08-19T08:26:02.946Z,6.00
2018-08-19T08:28:32.279Z,11.27
2018-08-19T08:31:01.829Z,7.27
2018-08-19T08:33:31.255Z,4.80
2018-08-19T08:36:00.510Z,5.93
2018-08-19T08:38:29.907Z,5.17
2018-08-19T08:40:59.364Z,14.20
2018-08-19T08:43:28.645Z,6.07
2018-08-19T08:45:59.231Z,7.20
2018-08-19T08:48:34.147Z,5.70
2018-08-19T08:51:03.864Z,6.40
2018-08-19T08:53:43.696Z,9.27
2018-08-19T08:56:13.319Z,9.87
2018-08-19T08:58:43.087Z,8.60
2018-08-19T09:01:12.480Z,74.13
2018-08-19T09:03:41.793Z,14.83
2018-08-19T09:06:18.098Z,33.47
2018-08-19T09:08:47.525Z,20.07
2018-08-19T09:11:18.285Z,14.57
2018-08-19T09:13:47.737Z,9.83
2018-08-19T09:16:17.092Z,10.40
2018-08-19T09:18:46.396Z,13.73
2018-08-19T09:21:16.188Z,11.63
2018-08-19T09:23:45.570Z,17.93
2018-08-19T09:26:15.198Z,9.60
2018-08-19T09:28:44.678Z,11.30
2018-08-19T09:31:14.011Z,10.17
2018-08-19T09:33:43.330Z,11.37
2018-08-19T09:36:12.771Z,34.77
2018-08-19T09:38:42.143Z,11.90
2018-08-19T09:41:11.482Z,7.73
2018-08-19T09:43:41.762Z,12.57
2018-08-19T09:46:11.070Z,19.07
2018-08-19T09:48:40.374Z,8.73
2018-08-19T09:51:13.787Z,10.67
2018-08-19T09:53:43.138Z,12.40
2018-08-19T09:56:12.673Z,15.43
2018-08-19T09:58:46.067Z,7.87
2018-08-19T10:01:19.558Z,16.30
2018-08-19T10:03:48.803Z,21.50
2018-08-19T10:06:18.192Z,10.73
2018-08-19T10:08:47.483Z,11.30
2018-08-19T10:11:16.865Z,13.80
2018-08-19T10:13:48.376Z,14.37
2018-08-19T10:16:17.908Z,9.43
2018-08-19T10:18:47.160Z,11.43
2018-08-19T10:21:18.766Z,6.10
2018-08-19T10:23:48.050Z,11.73
2018-08-19T10:26:17.863Z,7.20
2018-08-19T10:28:47.718Z,7.93
2018-08-19T10:31:18.449Z,8.77
2018-08-19T10:33:50.984Z,13.73
2018-08-19T10:36:20.444Z,8.60
2018-08-19T10:38:49.739Z,11.43
2018-08-19T10:41:19.545Z,8.67
2018-08-19T10:43:48.771Z,8.87
2018-08-19T10:46:18.091Z,10.83
2018-08-19T10:48:47.425Z,10.17
2018-08-19T10:51:16.708Z,65.47
2018-08-19T10:53:46.122Z,27.40
2018-08-19T10:56:15.477Z,6.43
2018-08-19T10:58:49.761Z,13.60
2018-08-19T11:01:19.996Z,15.17
2018-08-19T11:03:49.732Z,14.73
2018-08-19T11:06:19.107Z,31.40
2018-08-19T11:08:55.800Z,13.70
2018-08-19T11:11:25.859Z,17.13
2018-08-19T11:13:55.116Z,92.77
2018-08-19T11:16:24.536Z,106.83
2018-08-19T11:18:54.928Z,115.33
2018-08-19T11:21:29.831Z,48.50
2018-08-19T11:23:59.991Z,56.83
2018-08-19T11:26:29.503Z,60.40
2018-08-19T11:28:59.872Z,61.50
2018-08-19T11:31:34.752Z,49.90
2018-08-19T11:34:07.303Z,17.33
2018-08-19T11:36:42.303Z,20.33
2018-08-19T11:39:13.651Z,19.93
2018-08-19T11:41:43.026Z,19.83
2018-08-19T11:44:14.773Z,21.67
2018-08-19T11:46:44.170Z,20.90
2018-08-19T11:49:15.986Z,14.53
2018-08-19T11:51:50.304Z,19.30
2018-08-19T11:54:20.546Z,9.03
2018-08-19T11:56:57.062Z,6.40
2018-08-19T11:59:33.566Z,37.03
2018-08-19T12:02:03.003Z,26.53
2018-08-19T12:04:32.289Z,20.03
2018-08-19T12:07:01.930Z,13.33
2018-08-19T12:09:31.340Z,15.20
2018-08-19T12:12:00.770Z,16.93
2018-08-19T12:14:33.050Z,7.77
2018-08-19T12:17:03.233Z,20.13
2018-08-19T12:19:33.419Z,14.53
2018-08-19T12:22:04.808Z,11.93
2018-08-19T12:24:37.974Z,14.13
2018-08-19T12:27:09.274Z,19.53
2018-08-19T12:29:39.773Z,9.30
2018-08-19T12:32:26.708Z,15.93
2018-08-19T12:34:58.480Z,16.03
2018-08-19T12:37:29.084Z,19.43
2018-08-19T12:39:59.105Z,8.50
2018-08-19T12:42:29.220Z,15.80
2018-08-19T12:45:02.720Z,17.20
2018-08-19T12:47:32.428Z,17.10
2018-08-19T12:50:03.847Z,14.37
2018-08-19T12:52:34.388Z,14.67
2018-08-19T12:55:07.779Z,6.17
2018-08-19T12:57:38.197Z,23.07
2018-08-19T13:00:19.629Z,16.93
2018-08-19T13:02:50.747Z,14.47
2018-08-19T13:05:20.876Z,9.10
2018-08-19T13:07:50.390Z,6.40
2018-08-19T13:10:19.827Z,17.27
2018-08-19T13:12:56.363Z,7.60
2018-08-19T13:15:28.093Z,11.70
2018-08-19T13:17:57.601Z,10.70
2018-08-19T13:20:27.190Z,17.13
2018-08-19T13:23:02.824Z,10.67
2018-08-19T13:25:32.435Z,43.77
2018-08-19T13:28:01.820Z,26.87
2018-08-19T13:30:31.158Z,22.97
2018-08-19T13:33:00.643Z,29.37
2018-08-19T13:35:30.010Z,9.13
2018-08-19T13:37:59.367Z,21.77
2018-08-19T13:40:28.735Z,29.60
2018-08-19T13:42:57.988Z,22.13
2018-08-19T13:45:28.540Z,45.47
2018-08-19T13:47:57.880Z,21.53
2018-08-19T13:50:27.337Z,23.40
2018-08-19T13:52:57.648Z,10.37
2018-08-19T13:55:27.478Z,33.57
2018-08-19T13:57:56.791Z,45.77
2018-08-19T14:00:30.220Z,17.10
2018-08-19T14:02:59.496Z,32.50
2018-08-19T14:05:29.074Z,29.97
2018-08-19T14:07:58.379Z,18.70
2018-08-19T14:10:27.668Z,25.10
2018-08-19T14:12:56.937Z,20.50
2018-08-19T14:15:26.332Z,16.53
2018-08-19T14:17:55.624Z,15.00
2018-08-19T14:20:24.950Z,10.53
2018-08-19T14:22:54.259Z,18.57
2018-08-19T14:25:23.533Z,29.23
2018-08-19T14:27:52.839Z,8.30
2018-08-19T14:30:22.230Z,16.73
2018-08-19T14:32:51.592Z,17.20
2018-08-19T14:35:20.982Z,23.63
2018-08-19T14:37:50.244Z,16.07
2018-08-19T14:40:19.872Z,13.67
2018-08-19T14:42:49.056Z,22.87
2018-08-19T14:45:18.472Z,14.23
2018-08-19T14:47:47.785Z,20.33
2018-08-19T14:50:19.178Z,20.93
2018-08-19T14:52:48.695Z,23.77
2018-08-19T14:55:18.115Z,20.57
2018-08-19T14:57:47.462Z,19.97
2018-08-19T15:00:17.935Z,28.70
2018-08-19T15:02:47.198Z,25.43
2018-08-19T15:05:20.132Z,6.40
2018-08-19T15:07:49.840Z,15.80
2018-08-19T15:10:21.938Z,14.37
2018-08-19T15:12:51.286Z,17.70
2018-08-19T15:15:20.563Z,15.23
2018-08-19T15:17:57.026Z,20.90
2018-08-19T15:20:33.989Z,14.70
2018-08-19T15:23:14.524Z,10.97
2018-08-19T15:25:44.128Z,11.10
2018-08-19T15:28:13.467Z,15.70
2018-08-19T15:30:43.163Z,12.70
2018-08-19T15:33:13.534Z,12.00
2018-08-19T15:35:43.491Z,34.00
2018-08-19T15:38:13.072Z,22.93
2018-08-19T15:40:47.467Z,15.63
2018-08-19T15:43:16.833Z,12.50
2018-08-19T15:45:46.627Z,10.90
2018-08-19T15:48:16.007Z,14.60
2018-08-19T15:50:45.371Z,10.23
2018-08-19T15:53:14.829Z,18.63
2018-08-19T15:55:44.140Z,17.30
2018-08-19T15:58:13.423Z,19.23
2018-08-19T16:00:42.887Z,8.03
2018-08-19T16:03:13.155Z,14.07
2018-08-19T16:05:42.421Z,16.67
2018-08-19T16:08:11.725Z,13.53
2018-08-19T16:10:41.287Z,6.67
2018-08-19T16:13:11.911Z,21.37
2018-08-19T16:15:41.278Z,7.33
2018-08-19T16:18:10.657Z,19.87
2018-08-19T16:20:40.100Z,17.43
2018-08-19T16:23:09.474Z,13.40
2018-08-19T16:25:38.825Z,20.07
2018-08-19T16:28:08.134Z,10.03
2018-08-19T16:30:37.407Z,15.43
2018-08-19T16:33:06.718Z,11.80
2018-08-19T16:35:36.119Z,15.60
2018-08-19T16:38:05.771Z,9.73
2018-08-19T16:40:35.116Z,15.50
2018-08-19T16:43:04.517Z,8.23
2018-08-19T16:45:33.842Z,10.53
2018-08-19T16:48:03.143Z,12.47
2018-08-19T16:50:32.582Z,13.60
2018-08-19T16:53:01.782Z,7.20
2018-08-19T16:55:42.070Z,24.50
2018-08-19T16:58:11.369Z,21.50
2018-08-19T17:00:40.607Z,13.80
2018-08-19T17:03:25.659Z,7.10
2018-08-19T17:05:55.838Z,15.40
2018-08-19T17:08:25.131Z,13.73
2018-08-19T17:10:54.458Z,10.43
2018-08-19T17:13:23.699Z,16.60
2018-08-19T17:15:53.020Z,21.33
2018-08-19T17:18:22.307Z,9.83
2018-08-19T17:20:52.531Z,9.73
2018-08-19T17:23:23.152Z,13.33
2018-08-19T17:25:52.677Z,13.50
2018-08-19T17:28:25.295Z,12.53
2018-08-19T17:30:55.595Z,10.43
2018-08-19T17:33:27.110Z,16.07
2018-08-19T17:35:56.471Z,11.00
2018-08-19T17:38:29.440Z,13.93
2018-08-19T17:40:58.832Z,9.03
2018-08-19T17:43:33.117Z,13.73
2018-08-19T17:46:10.117Z,9.73
2018-08-19T17:48:40.488Z,6.00
2018-08-19T17:51:21.697Z,9.47
2018-08-19T17:53:51.032Z,9.77
2018-08-19T17:56:20.882Z,7.53
2018-08-19T17:58:52.164Z,13.17
2018-08-19T18:01:21.791Z,12.07
2018-08-19T18:03:51.066Z,9.73
2018-08-19T18:06:20.434Z,5.63
2018-08-19T18:08:51.766Z,14.13
2018-08-19T18:11:21.507Z,11.93
2018-08-19T18:13:50.917Z,9.17
2018-08-19T18:16:20.260Z,8.67
2018-08-19T18:18:49.640Z,13.37
2018-08-19T18:21:19.159Z,11.50
2018-08-19T18:23:49.515Z,6.43
2018-08-19T18:26:19.895Z,11.13
2018-08-19T18:28:49.477Z,8.33
2018-08-19T18:31:21.967Z,5.50
2018-08-19T18:33:59.669Z,20.97
2018-08-19T18:36:31.378Z,17.27
2018-08-19T18:39:01.227Z,14.83
2018-08-19T18:41:36.843Z,4.63
2018-08-19T18:44:08.304Z,10.43
2018-08-19T18:46:37.832Z,12.40
2018-08-19T18:49:11.129Z,10.80
2018-08-19T18:51:41.591Z,20.73
2018-08-19T18:54:17.578Z,7.63
2018-08-19T18:56:47.065Z,9.63
2018-08-19T18:59:19.577Z,16.07
2018-08-19T19:01:48.915Z,5.23
2018-08-19T19:04:18.354Z,11.43
2018-08-19T19:06:47.754Z,5.30
2018-08-19T19:09:17.238Z,11.43
2018-08-19T19:11:47.793Z,11.00
2018-08-19T19:14:19.533Z,6.23
2018-08-19T19:16:54.538Z,9.73
2018-08-19T19:19:24.056Z,8.93
2018-08-19T19:21:59.334Z,14.30
2018-08-19T19:24:33.902Z,14.70
2018-08-19T19:27:03.252Z,12.63
2018-08-19T19:29:33.029Z,10.17
2018-08-19T19:32:11.956Z,8.23
2018-08-19T19:34:41.996Z,8.93
2018-08-19T19:37:11.432Z,9.67
2018-08-19T19:39:40.868Z,21.70
2018-08-19T19:42:11.325Z,7.70
2018-08-19T19:44:40.828Z,10.90
2018-08-19T19:47:10.827Z,8.27
2018-08-19T19:49:46.808Z,11.83
2018-08-19T19:52:16.032Z,6.10
2018-08-19T19:54:45.314Z,10.70
2018-08-19T19:57:14.667Z,10.33
2018-08-19T19:59:44.527Z,8.53
2018-08-19T20:02:29.167Z,9.97
2018-08-19T20:04:58.514Z,5.33
2018-08-19T20:07:28.317Z,4.40
2018-08-19T20:09:57.679Z,5.33
2018-08-19T20:12:28.369Z,8.40
2018-08-19T20:15:00.323Z,8.47
2018-08-19T20:17:29.707Z,7.13
2018-08-19T20:19:59.015Z,17.83
2018-08-19T20:22:28.357Z,9.10
2018-08-19T20:24:57.646Z,6.30
2018-08-19T20:27:26.876Z,9.27
2018-08-19T20:29:56.352Z,7.80
2018-08-19T20:32:25.650Z,5.60
2018-08-19T20:34:54.965Z,7.20
2018-08-19T20:37:25.985Z,6.20
2018-08-19T20:39:55.899Z,5.87
2018-08-19T20:42:25.336Z,12.57
2018-08-19T20:44:54.762Z,8.67
2018-08-19T20:47:24.013Z,7.20
2018-08-19T20:49:53.435Z,7.10
2018-08-19T20:52:32.719Z,10.00
2018-08-19T20:55:02.007Z,5.70
2018-08-19T20:57:31.318Z,5.93
2018-08-19T21:00:00.606Z,9.43
2018-08-19T21:02:29.939Z,6.20
2018-08-19T21:04:59.398Z,9.63
2018-08-19T21:07:28.719Z,11.77
2018-08-19T21:09:58.003Z,10.40
2018-08-19T21:12:27.355Z,12.43
2018-08-19T21:14:56.637Z,11.30
2018-08-19T21:17:39.067Z,8.30
2018-08-19T21:20:08.824Z,6.87
2018-08-19T21:22:38.312Z,4.70
2018-08-19T21:25:07.646Z,9.38
2018-08-19T21:27:39.185Z,14.90
2018-08-19T21:30:08.794Z,7.85
2018-08-19T21:32:38.138Z,12.73
2018-08-19T21:35:09.133Z,6.70
2018-08-19T21:37:38.997Z,5.67
2018-08-19T21:40:09.114Z,10.63
2018-08-19T21:42:49.177Z,17.13
2018-08-19T21:45:20.259Z,10.07
2018-08-19T21:47:49.612Z,6.80
2018-08-19T21:50:18.878Z,5.50
2018-08-19T21:53:02.601Z,6.53
2018-08-19T21:55:52.078Z,8.60
2018-08-19T21:58:21.752Z,7.60
2018-08-19T22:00:58.919Z,7.47
2018-08-19T22:03:33.524Z,7.70
2018-08-19T22:06:09.906Z,10.47
2018-08-19T22:08:39.758Z,6.45
2018-08-19T22:11:09.195Z,6.67
2018-08-19T22:13:38.573Z,10.63
2018-08-19T22:16:08.239Z,9.50
2018-08-19T22:18:37.783Z,5.60
2018-08-19T22:21:16.407Z,6.67
2018-08-19T22:23:47.046Z,8.20
2018-08-19T22:26:19.300Z,6.00
2018-08-19T22:29:02.345Z,9.77
2018-08-19T22:31:31.655Z,6.03
2018-08-19T22:34:00.990Z,6.20
2018-08-19T22:36:30.386Z,10.57
2018-08-19T22:39:00.007Z,8.27
2018-08-19T22:41:31.004Z,5.90
2018-08-19T22:44:00.379Z,4.87
2018-08-19T22:46:29.950Z,9.50
2018-08-19T22:48:59.627Z,9.30
2018-08-19T22:51:32.479Z,10.10
2018-08-19T22:54:01.871Z,6.87
2018-08-19T22:56:31.114Z,5.47
2018-08-19T22:59:00.366Z,7.23
2018-08-19T23:01:35.033Z,7.33
2018-08-19T23:04:04.791Z,4.50
2018-08-19T23:06:34.430Z,6.07
2018-08-19T23:09:05.102Z,7.87
2018-08-19T23:11:39.426Z,9.43
2018-08-19T23:14:19.454Z,6.80
2018-08-19T23:16:48.721Z,6.63
2018-08-19T23:19:20.598Z,4.63
2018-08-19T23:21:50.144Z,6.03
2018-08-19T23:24:19.413Z,5.80
2018-08-19T23:26:48.664Z,7.90
2018-08-19T23:29:17.923Z,13.17
2018-08-19T23:31:47.192Z,7.57
2018-08-19T23:34:16.452Z,7.07
2018-08-19T23:36:45.780Z,6.60
2018-08-19T23:39:15.105Z,5.87
2018-08-19T23:41:44.408Z,11.00
2018-08-19T23:44:13.725Z,11.10
2018-08-19T23:46:42.996Z,7.00
2018-08-19T23:49:12.307Z,7.70
2018-08-19T23:51:41.645Z,6.53
2018-08-19T23:54:11.031Z,4.40
2018-08-19T23:56:40.321Z,4.00
2018-08-19T23:59:09.579Z,6.10
